sensor_id;sensor_type;location;lat;lon;timestamp;temperature;humidity
32476;DHT22;18929;48.008;10.882;2022-12-07T00:01:28;4.90;99.90
32476;DHT22;18929;48.008;10.882;2022-12-07T00:03:57;5.00;99.90
32476;DHT22;18929;48.008;10.882;2022-12-07T00:06:30;5.10;99.90
32476;DHT22;18929;48.008;10.882;2022-12-07T00:08:57;5.10;99.90
32476;DHT22;18929;48.008;10.882;2022-12-07T00:11:25;5.00;99.90
32476;DHT22;18929;48.008;10.882;2022-12-07T00:13:55;5.00;99.90
32476;DHT22;18929;48.008;10.882;2022-12-07T00:16:24;5.10;99.90
32476;DHT22;18929;48.008;10.882;2022-12-07T00:18:52;5.10;99.90
32476;DHT22;18929;48.008;10.882;2022-12-07T00:21:20;5.20;99.90
32476;DHT22;18929;48.008;10.882;2022-12-07T00:23:49;5.10;99.90
32476;DHT22;18929;48.008;10.882;2022-12-07T00:26:17;5.10;99.90
32476;DHT22;18929;48.008;10.882;2022-12-07T00:28:47;5.00;99.90
32476;DHT22;18929;48.008;10.882;2022-12-07T00:31:18;4.90;99.90
32476;DHT22;18929;48.008;10.882;2022-12-07T00:33:45;5.00;99.90
32476;DHT22;18929;48.008;10.882;2022-12-07T00:36:14;5.00;99.90
32476;DHT22;18929;48.008;10.882;2022-12-07T00:38:41;5.00;99.90
32476;DHT22;18929;48.008;10.882;2022-12-07T00:41:11;4.80;99.90
32476;DHT22;18929;48.008;10.882;2022-12-07T00:43:38;4.60;99.90
32476;DHT22;18929;48.008;10.882;2022-12-07T00:46:05;4.10;99.90
32476;DHT22;18929;48.008;10.882;2022-12-07T00:48:34;4.30;99.90
32476;DHT22;18929;48.008;10.882;2022-12-07T00:51:01;4.60;99.90
32476;DHT22;18929;48.008;10.882;2022-12-07T00:53:28;4.70;99.90
32476;DHT22;18929;48.008;10.882;2022-12-07T00:55:55;4.60;99.90
32476;DHT22;18929;48.008;10.882;2022-12-07T00:58:23;4.30;99.90
32476;DHT22;18929;48.008;10.882;2022-12-07T01:00:50;4.20;99.90
32476;DHT22;18929;48.008;10.882;2022-12-07T01:03:17;4.50;99.90
32476;DHT22;18929;48.008;10.882;2022-12-07T01:05:54;4.80;99.90
32476;DHT22;18929;48.008;10.882;2022-12-07T01:08:21;5.10;99.90
32476;DHT22;18929;48.008;10.882;2022-12-07T01:10:49;5.00;99.90
32476;DHT22;18929;48.008;10.882;2022-12-07T01:13:16;5.10;99.90
32476;DHT22;18929;48.008;10.882;2022-12-07T01:15:44;5.00;99.90
32476;DHT22;18929;48.008;10.882;2022-12-07T01:18:11;4.30;99.90
32476;DHT22;18929;48.008;10.882;2022-12-07T01:20:38;4.60;99.90
32476;DHT22;18929;48.008;10.882;2022-12-07T01:23:07;4.70;99.90
32476;DHT22;18929;48.008;10.882;2022-12-07T01:25:34;4.70;99.90
32476;DHT22;18929;48.008;10.882;2022-12-07T01:28:01;4.80;99.90
32476;DHT22;18929;48.008;10.882;2022-12-07T01:30:28;4.90;99.90
32476;DHT22;18929;48.008;10.882;2022-12-07T01:32:55;4.80;99.90
32476;DHT22;18929;48.008;10.882;2022-12-07T01:35:22;4.60;99.90
32476;DHT22;18929;48.008;10.882;2022-12-07T01:37:48;4.60;99.90
32476;DHT22;18929;48.008;10.882;2022-12-07T01:40:17;4.70;99.90
32476;DHT22;18929;48.008;10.882;2022-12-07T01:42:45;4.80;99.90
32476;DHT22;18929;48.008;10.882;2022-12-07T01:45:37;4.70;99.90
32476;DHT22;18929;48.008;10.882;2022-12-07T01:48:05;4.60;99.90
32476;DHT22;18929;48.008;10.882;2022-12-07T01:50:34;4.60;99.90
32476;DHT22;18929;48.008;10.882;2022-12-07T01:53:04;4.50;99.90
32476;DHT22;18929;48.008;10.882;2022-12-07T01:55:38;4.60;99.90
32476;DHT22;18929;48.008;10.882;2022-12-07T01:58:06;4.70;99.90
32476;DHT22;18929;48.008;10.882;2022-12-07T02:00:33;4.40;99.90
32476;DHT22;18929;48.008;10.882;2022-12-07T02:03:04;4.80;99.90
32476;DHT22;18929;48.008;10.882;2022-12-07T02:05:34;4.90;99.90
32476;DHT22;18929;48.008;10.882;2022-12-07T02:08:02;4.90;99.90
32476;DHT22;18929;48.008;10.882;2022-12-07T02:10:31;4.90;99.90
32476;DHT22;18929;48.008;10.882;2022-12-07T02:13:02;4.90;99.90
32476;DHT22;18929;48.008;10.882;2022-12-07T02:15:40;4.90;99.90
32476;DHT22;18929;48.008;10.882;2022-12-07T02:18:15;4.80;99.90
32476;DHT22;18929;48.008;10.882;2022-12-07T02:20:51;4.70;99.90
32476;DHT22;18929;48.008;10.882;2022-12-07T02:23:57;4.80;99.90
32476;DHT22;18929;48.008;10.882;2022-12-07T02:29:34;5.00;99.90
32476;DHT22;18929;48.008;10.882;2022-12-07T02:32:07;5.00;99.90
32476;DHT22;18929;48.008;10.882;2022-12-07T02:34:43;5.00;99.90
32476;DHT22;18929;48.008;10.882;2022-12-07T02:37:19;5.10;99.90
32476;DHT22;18929;48.008;10.882;2022-12-07T02:39:52;5.20;99.90
32476;DHT22;18929;48.008;10.882;2022-12-07T02:42:23;5.20;99.90
32476;DHT22;18929;48.008;10.882;2022-12-07T02:44:53;5.30;99.90
32476;DHT22;18929;48.008;10.882;2022-12-07T02:47:21;5.30;99.90
32476;DHT22;18929;48.008;10.882;2022-12-07T02:49:50;5.30;99.90
32476;DHT22;18929;48.008;10.882;2022-12-07T02:52:18;5.30;99.90
32476;DHT22;18929;48.008;10.882;2022-12-07T02:54:44;5.40;99.90
32476;DHT22;18929;48.008;10.882;2022-12-07T02:57:35;5.30;99.90
32476;DHT22;18929;48.008;10.882;2022-12-07T03:00:08;5.20;99.90
32476;DHT22;18929;48.008;10.882;2022-12-07T03:02:45;5.20;99.90
32476;DHT22;18929;48.008;10.882;2022-12-07T03:08:13;5.10;99.90
32476;DHT22;18929;48.008;10.882;2022-12-07T03:10:50;5.00;99.90
32476;DHT22;18929;48.008;10.882;2022-12-07T03:13:23;4.90;99.90
32476;DHT22;18929;48.008;10.882;2022-12-07T03:15:56;5.00;99.90
32476;DHT22;18929;48.008;10.882;2022-12-07T03:18:27;5.10;99.90
32476;DHT22;18929;48.008;10.882;2022-12-07T03:20:57;5.00;99.90
32476;DHT22;18929;48.008;10.882;2022-12-07T03:23:27;5.10;99.90
32476;DHT22;18929;48.008;10.882;2022-12-07T03:25:58;5.20;99.90
32476;DHT22;18929;48.008;10.882;2022-12-07T03:28:31;5.20;99.90
32476;DHT22;18929;48.008;10.882;2022-12-07T03:31:02;5.10;99.90
32476;DHT22;18929;48.008;10.882;2022-12-07T03:33:32;5.10;99.90
32476;DHT22;18929;48.008;10.882;2022-12-07T03:36:05;5.30;99.90
32476;DHT22;18929;48.008;10.882;2022-12-07T03:38:35;5.20;99.90
32476;DHT22;18929;48.008;10.882;2022-12-07T03:41:06;5.10;99.90
32476;DHT22;18929;48.008;10.882;2022-12-07T03:43:35;5.10;99.90
32476;DHT22;18929;48.008;10.882;2022-12-07T03:46:09;5.20;99.90
32476;DHT22;18929;48.008;10.882;2022-12-07T03:48:42;5.00;99.90
32476;DHT22;18929;48.008;10.882;2022-12-07T03:51:14;4.90;99.90
32476;DHT22;18929;48.008;10.882;2022-12-07T03:53:50;4.80;99.90
32476;DHT22;18929;48.008;10.882;2022-12-07T03:56:18;4.70;99.90
32476;DHT22;18929;48.008;10.882;2022-12-07T03:58:46;5.00;99.90
32476;DHT22;18929;48.008;10.882;2022-12-07T04:01:17;4.90;99.90
32476;DHT22;18929;48.008;10.882;2022-12-07T04:03:44;4.80;99.90
32476;DHT22;18929;48.008;10.882;2022-12-07T04:06:11;4.70;99.90
32476;DHT22;18929;48.008;10.882;2022-12-07T04:08:38;4.80;99.90
32476;DHT22;18929;48.008;10.882;2022-12-07T04:11:05;4.80;99.90
32476;DHT22;18929;48.008;10.882;2022-12-07T04:13:32;4.80;99.90
32476;DHT22;18929;48.008;10.882;2022-12-07T04:16:21;4.80;99.90
32476;DHT22;18929;48.008;10.882;2022-12-07T04:18:48;4.90;99.90
32476;DHT22;18929;48.008;10.882;2022-12-07T04:21:15;4.80;99.90
32476;DHT22;18929;48.008;10.882;2022-12-07T04:23:42;4.90;99.90
32476;DHT22;18929;48.008;10.882;2022-12-07T04:26:09;4.90;99.90
32476;DHT22;18929;48.008;10.882;2022-12-07T04:28:36;4.00;99.90
32476;DHT22;18929;48.008;10.882;2022-12-07T04:31:03;3.60;99.90
32476;DHT22;18929;48.008;10.882;2022-12-07T04:33:31;3.00;99.90
32476;DHT22;18929;48.008;10.882;2022-12-07T04:35:58;3.40;99.90
32476;DHT22;18929;48.008;10.882;2022-12-07T04:38:25;3.70;99.90
32476;DHT22;18929;48.008;10.882;2022-12-07T04:40:52;4.00;99.90
32476;DHT22;18929;48.008;10.882;2022-12-07T04:43:19;4.10;99.90
32476;DHT22;18929;48.008;10.882;2022-12-07T04:45:47;4.30;99.90
32476;DHT22;18929;48.008;10.882;2022-12-07T04:48:14;4.60;99.90
32476;DHT22;18929;48.008;10.882;2022-12-07T04:50:42;4.70;99.90
32476;DHT22;18929;48.008;10.882;2022-12-07T04:53:09;4.60;99.90
32476;DHT22;18929;48.008;10.882;2022-12-07T04:55:36;4.60;99.90
32476;DHT22;18929;48.008;10.882;2022-12-07T04:58:03;4.50;99.90
32476;DHT22;18929;48.008;10.882;2022-12-07T05:00:30;4.60;99.90
32476;DHT22;18929;48.008;10.882;2022-12-07T05:02:57;4.70;99.90
32476;DHT22;18929;48.008;10.882;2022-12-07T05:05:26;4.70;99.90
32476;DHT22;18929;48.008;10.882;2022-12-07T05:07:55;4.70;99.90
32476;DHT22;18929;48.008;10.882;2022-12-07T05:10:22;4.40;99.90
32476;DHT22;18929;48.008;10.882;2022-12-07T05:12:50;4.70;99.90
32476;DHT22;18929;48.008;10.882;2022-12-07T05:15:17;4.80;99.90
32476;DHT22;18929;48.008;10.882;2022-12-07T05:17:44;4.40;99.90
32476;DHT22;18929;48.008;10.882;2022-12-07T05:20:11;4.00;99.90
32476;DHT22;18929;48.008;10.882;2022-12-07T05:22:38;4.00;99.90
32476;DHT22;18929;48.008;10.882;2022-12-07T05:25:08;4.50;99.90
32476;DHT22;18929;48.008;10.882;2022-12-07T05:27:35;4.00;99.90
32476;DHT22;18929;48.008;10.882;2022-12-07T05:30:02;3.80;99.90
32476;DHT22;18929;48.008;10.882;2022-12-07T05:32:29;4.40;99.90
32476;DHT22;18929;48.008;10.882;2022-12-07T05:34:57;4.60;99.90
32476;DHT22;18929;48.008;10.882;2022-12-07T05:37:24;4.70;99.90
32476;DHT22;18929;48.008;10.882;2022-12-07T05:39:51;4.70;99.90
32476;DHT22;18929;48.008;10.882;2022-12-07T05:42:54;4.70;99.90
32476;DHT22;18929;48.008;10.882;2022-12-07T05:45:21;4.80;99.90
32476;DHT22;18929;48.008;10.882;2022-12-07T05:47:48;4.70;99.90
32476;DHT22;18929;48.008;10.882;2022-12-07T05:50:15;4.80;99.90
32476;DHT22;18929;48.008;10.882;2022-12-07T05:52:42;4.70;99.90
32476;DHT22;18929;48.008;10.882;2022-12-07T05:55:09;4.60;99.90
32476;DHT22;18929;48.008;10.882;2022-12-07T05:57:36;4.40;99.90
32476;DHT22;18929;48.008;10.882;2022-12-07T06:00:05;4.60;99.90
32476;DHT22;18929;48.008;10.882;2022-12-07T06:02:31;4.70;99.90
32476;DHT22;18929;48.008;10.882;2022-12-07T06:04:58;4.70;99.90
32476;DHT22;18929;48.008;10.882;2022-12-07T06:07:25;4.60;99.90
32476;DHT22;18929;48.008;10.882;2022-12-07T06:09:52;4.70;99.90
32476;DHT22;18929;48.008;10.882;2022-12-07T06:12:19;4.50;99.90
32476;DHT22;18929;48.008;10.882;2022-12-07T06:15:09;4.50;99.90
32476;DHT22;18929;48.008;10.882;2022-12-07T06:17:40;4.60;99.90
32476;DHT22;18929;48.008;10.882;2022-12-07T06:20:08;4.60;99.90
32476;DHT22;18929;48.008;10.882;2022-12-07T06:22:35;4.80;99.90
32476;DHT22;18929;48.008;10.882;2022-12-07T06:25:03;4.80;99.90
32476;DHT22;18929;48.008;10.882;2022-12-07T06:27:30;4.70;99.90
32476;DHT22;18929;48.008;10.882;2022-12-07T06:29:58;4.60;99.90
32476;DHT22;18929;48.008;10.882;2022-12-07T06:32:32;4.50;99.90
32476;DHT22;18929;48.008;10.882;2022-12-07T06:34:59;4.50;99.90
32476;DHT22;18929;48.008;10.882;2022-12-07T06:37:26;4.30;99.90
32476;DHT22;18929;48.008;10.882;2022-12-07T06:39:53;4.20;99.90
32476;DHT22;18929;48.008;10.882;2022-12-07T06:42:20;4.30;99.90
32476;DHT22;18929;48.008;10.882;2022-12-07T06:44:47;4.30;99.90
32476;DHT22;18929;48.008;10.882;2022-12-07T06:47:14;4.00;99.90
32476;DHT22;18929;48.008;10.882;2022-12-07T06:49:43;4.10;99.90
32476;DHT22;18929;48.008;10.882;2022-12-07T06:52:09;4.20;99.90
32476;DHT22;18929;48.008;10.882;2022-12-07T06:54:36;4.20;99.90
32476;DHT22;18929;48.008;10.882;2022-12-07T06:57:03;4.40;99.90
32476;DHT22;18929;48.008;10.882;2022-12-07T06:59:30;4.40;99.90
32476;DHT22;18929;48.008;10.882;2022-12-07T07:01:58;4.50;99.90
32476;DHT22;18929;48.008;10.882;2022-12-07T07:04:25;4.50;99.90
32476;DHT22;18929;48.008;10.882;2022-12-07T07:06:53;4.50;99.90
32476;DHT22;18929;48.008;10.882;2022-12-07T07:09:20;4.40;99.90
32476;DHT22;18929;48.008;10.882;2022-12-07T07:11:47;4.40;99.90
32476;DHT22;18929;48.008;10.882;2022-12-07T07:14:14;4.30;99.90
32476;DHT22;18929;48.008;10.882;2022-12-07T07:16:44;4.20;99.90
32476;DHT22;18929;48.008;10.882;2022-12-07T07:19:11;4.20;99.90
32476;DHT22;18929;48.008;10.882;2022-12-07T07:21:39;4.20;99.90
32476;DHT22;18929;48.008;10.882;2022-12-07T07:24:07;4.30;99.90
32476;DHT22;18929;48.008;10.882;2022-12-07T07:26:34;4.20;99.90
32476;DHT22;18929;48.008;10.882;2022-12-07T07:29:01;4.30;99.90
32476;DHT22;18929;48.008;10.882;2022-12-07T07:31:28;4.40;99.90
32476;DHT22;18929;48.008;10.882;2022-12-07T07:33:56;4.40;99.90
32476;DHT22;18929;48.008;10.882;2022-12-07T07:36:23;4.30;99.90
32476;DHT22;18929;48.008;10.882;2022-12-07T07:38:50;4.40;99.90
32476;DHT22;18929;48.008;10.882;2022-12-07T07:41:21;4.50;99.90
32476;DHT22;18929;48.008;10.882;2022-12-07T07:43:51;4.40;99.90
32476;DHT22;18929;48.008;10.882;2022-12-07T07:46:18;4.10;99.90
32476;DHT22;18929;48.008;10.882;2022-12-07T07:48:46;4.30;99.90
32476;DHT22;18929;48.008;10.882;2022-12-07T07:51:13;4.40;99.90
32476;DHT22;18929;48.008;10.882;2022-12-07T07:53:40;4.40;99.90
32476;DHT22;18929;48.008;10.882;2022-12-07T07:56:07;4.50;99.90
32476;DHT22;18929;48.008;10.882;2022-12-07T07:58:35;4.50;99.90
32476;DHT22;18929;48.008;10.882;2022-12-07T08:01:05;4.60;99.90
32476;DHT22;18929;48.008;10.882;2022-12-07T08:03:32;4.50;99.90
32476;DHT22;18929;48.008;10.882;2022-12-07T08:05:59;4.30;99.90
32476;DHT22;18929;48.008;10.882;2022-12-07T08:08:26;4.30;99.90
32476;DHT22;18929;48.008;10.882;2022-12-07T08:11:12;4.40;99.90
32476;DHT22;18929;48.008;10.882;2022-12-07T08:13:40;4.40;99.90
32476;DHT22;18929;48.008;10.882;2022-12-07T08:16:09;4.30;99.90
32476;DHT22;18929;48.008;10.882;2022-12-07T08:18:38;4.20;99.90
32476;DHT22;18929;48.008;10.882;2022-12-07T08:21:07;4.00;99.90
32476;DHT22;18929;48.008;10.882;2022-12-07T08:23:36;4.10;99.90
32476;DHT22;18929;48.008;10.882;2022-12-07T08:26:05;4.40;99.90
32476;DHT22;18929;48.008;10.882;2022-12-07T08:28:32;4.60;99.90
32476;DHT22;18929;48.008;10.882;2022-12-07T08:31:02;4.70;99.90
32476;DHT22;18929;48.008;10.882;2022-12-07T08:33:30;4.50;99.90
32476;DHT22;18929;48.008;10.882;2022-12-07T08:36:00;4.60;99.90
32476;DHT22;18929;48.008;10.882;2022-12-07T08:38:27;4.40;99.90
32476;DHT22;18929;48.008;10.882;2022-12-07T08:40:55;4.50;99.90
32476;DHT22;18929;48.008;10.882;2022-12-07T08:43:22;4.40;99.90
32476;DHT22;18929;48.008;10.882;2022-12-07T08:45:53;4.60;99.90
32476;DHT22;18929;48.008;10.882;2022-12-07T08:48:22;4.40;99.90
32476;DHT22;18929;48.008;10.882;2022-12-07T08:50:51;4.20;99.90
32476;DHT22;18929;48.008;10.882;2022-12-07T08:53:20;4.20;99.90
32476;DHT22;18929;48.008;10.882;2022-12-07T08:55:47;4.30;99.90
32476;DHT22;18929;48.008;10.882;2022-12-07T08:58:14;4.20;99.90
32476;DHT22;18929;48.008;10.882;2022-12-07T09:00:42;4.20;99.90
32476;DHT22;18929;48.008;10.882;2022-12-07T09:03:08;4.10;99.90
32476;DHT22;18929;48.008;10.882;2022-12-07T09:05:37;4.20;99.90
32476;DHT22;18929;48.008;10.882;2022-12-07T09:08:06;4.40;99.90
32476;DHT22;18929;48.008;10.882;2022-12-07T09:10:34;4.40;99.90
32476;DHT22;18929;48.008;10.882;2022-12-07T09:13:00;4.30;99.90
32476;DHT22;18929;48.008;10.882;2022-12-07T09:15:28;4.00;99.90
32476;DHT22;18929;48.008;10.882;2022-12-07T09:17:55;4.00;99.90
32476;DHT22;18929;48.008;10.882;2022-12-07T09:20:22;4.00;99.90
32476;DHT22;18929;48.008;10.882;2022-12-07T09:22:51;4.10;99.90
32476;DHT22;18929;48.008;10.882;2022-12-07T09:25:18;4.10;99.90
32476;DHT22;18929;48.008;10.882;2022-12-07T09:27:45;4.10;99.90
32476;DHT22;18929;48.008;10.882;2022-12-07T09:30:12;3.80;99.90
32476;DHT22;18929;48.008;10.882;2022-12-07T09:32:39;4.00;99.90
32476;DHT22;18929;48.008;10.882;2022-12-07T09:35:07;4.00;99.90
32476;DHT22;18929;48.008;10.882;2022-12-07T09:37:34;4.10;99.90
32476;DHT22;18929;48.008;10.882;2022-12-07T09:40:04;4.30;99.90
32476;DHT22;18929;48.008;10.882;2022-12-07T09:42:34;4.30;99.90
32476;DHT22;18929;48.008;10.882;2022-12-07T09:45:04;4.30;99.90
32476;DHT22;18929;48.008;10.882;2022-12-07T09:47:32;4.20;99.90
32476;DHT22;18929;48.008;10.882;2022-12-07T09:50:04;4.10;99.90
32476;DHT22;18929;48.008;10.882;2022-12-07T09:52:32;4.10;99.90
32476;DHT22;18929;48.008;10.882;2022-12-07T09:54:59;4.00;99.90
32476;DHT22;18929;48.008;10.882;2022-12-07T09:57:31;4.10;99.90
32476;DHT22;18929;48.008;10.882;2022-12-07T10:00:02;4.40;99.90
32476;DHT22;18929;48.008;10.882;2022-12-07T10:02:36;4.60;99.90
32476;DHT22;18929;48.008;10.882;2022-12-07T10:05:05;4.40;99.90
32476;DHT22;18929;48.008;10.882;2022-12-07T10:07:33;4.40;99.90
32476;DHT22;18929;48.008;10.882;2022-12-07T10:10:03;4.30;99.90
32476;DHT22;18929;48.008;10.882;2022-12-07T10:12:55;4.30;99.90
32476;DHT22;18929;48.008;10.882;2022-12-07T10:15:22;4.20;99.90
32476;DHT22;18929;48.008;10.882;2022-12-07T10:17:50;4.20;99.90
32476;DHT22;18929;48.008;10.882;2022-12-07T10:20:24;4.30;99.90
32476;DHT22;18929;48.008;10.882;2022-12-07T10:22:58;4.20;99.90
32476;DHT22;18929;48.008;10.882;2022-12-07T10:25:27;4.10;99.90
32476;DHT22;18929;48.008;10.882;2022-12-07T10:28:00;4.10;99.90
32476;DHT22;18929;48.008;10.882;2022-12-07T10:30:29;4.10;99.90
32476;DHT22;18929;48.008;10.882;2022-12-07T10:32:57;4.10;99.90
32476;DHT22;18929;48.008;10.882;2022-12-07T10:35:27;4.30;99.90
32476;DHT22;18929;48.008;10.882;2022-12-07T10:37:56;4.20;99.90
32476;DHT22;18929;48.008;10.882;2022-12-07T10:40:32;4.30;99.90
32476;DHT22;18929;48.008;10.882;2022-12-07T10:43:03;4.30;99.90
32476;DHT22;18929;48.008;10.882;2022-12-07T10:45:32;4.40;99.90
32476;DHT22;18929;48.008;10.882;2022-12-07T10:48:03;4.10;99.90
32476;DHT22;18929;48.008;10.882;2022-12-07T10:50:46;4.00;99.90
32476;DHT22;18929;48.008;10.882;2022-12-07T10:53:25;4.00;99.90
32476;DHT22;18929;48.008;10.882;2022-12-07T10:56:25;4.30;99.90
32476;DHT22;18929;48.008;10.882;2022-12-07T10:59:06;4.30;99.90
32476;DHT22;18929;48.008;10.882;2022-12-07T11:01:41;4.10;99.90
32476;DHT22;18929;48.008;10.882;2022-12-07T11:04:26;4.20;99.90
32476;DHT22;18929;48.008;10.882;2022-12-07T11:07:02;4.30;99.90
32476;DHT22;18929;48.008;10.882;2022-12-07T11:09:49;4.50;99.90
32476;DHT22;18929;48.008;10.882;2022-12-07T11:12:28;4.60;99.90
32476;DHT22;18929;48.008;10.882;2022-12-07T11:15:03;4.30;99.90
32476;DHT22;18929;48.008;10.882;2022-12-07T11:17:40;4.30;99.90
32476;DHT22;18929;48.008;10.882;2022-12-07T11:20:20;4.40;99.90
32476;DHT22;18929;48.008;10.882;2022-12-07T11:22:55;4.30;99.90
32476;DHT22;18929;48.008;10.882;2022-12-07T11:25:31;4.30;99.90
32476;DHT22;18929;48.008;10.882;2022-12-07T11:28:14;4.50;99.90
32476;DHT22;18929;48.008;10.882;2022-12-07T11:30:52;4.80;99.90
32476;DHT22;18929;48.008;10.882;2022-12-07T11:33:29;4.80;99.90
32476;DHT22;18929;48.008;10.882;2022-12-07T11:36:06;4.50;99.90
32476;DHT22;18929;48.008;10.882;2022-12-07T11:38:43;4.00;99.90
32476;DHT22;18929;48.008;10.882;2022-12-07T11:41:12;4.50;99.90
32476;DHT22;18929;48.008;10.882;2022-12-07T11:43:54;4.70;99.90
32476;DHT22;18929;48.008;10.882;2022-12-07T11:46:26;4.90;99.90
32476;DHT22;18929;48.008;10.882;2022-12-07T11:49:01;4.60;99.90
32476;DHT22;18929;48.008;10.882;2022-12-07T11:51:30;4.60;99.90
32476;DHT22;18929;48.008;10.882;2022-12-07T11:54:02;4.60;99.90
32476;DHT22;18929;48.008;10.882;2022-12-07T11:56:30;4.40;99.90
32476;DHT22;18929;48.008;10.882;2022-12-07T11:59:08;4.40;99.90
32476;DHT22;18929;48.008;10.882;2022-12-07T12:01:48;4.20;99.90
32476;DHT22;18929;48.008;10.882;2022-12-07T12:04:28;4.20;99.90
32476;DHT22;18929;48.008;10.882;2022-12-07T12:06:57;4.20;99.90
32476;DHT22;18929;48.008;10.882;2022-12-07T12:09:28;4.30;99.90
32476;DHT22;18929;48.008;10.882;2022-12-07T12:12:14;4.40;99.90
32476;DHT22;18929;48.008;10.882;2022-12-07T12:14:52;4.80;99.90
32476;DHT22;18929;48.008;10.882;2022-12-07T12:20:26;4.80;99.90
32476;DHT22;18929;48.008;10.882;2022-12-07T12:22:57;4.60;99.90
32476;DHT22;18929;48.008;10.882;2022-12-07T12:25:27;4.60;99.90
32476;DHT22;18929;48.008;10.882;2022-12-07T12:27:57;4.50;99.90
32476;DHT22;18929;48.008;10.882;2022-12-07T12:30:32;4.60;99.90
32476;DHT22;18929;48.008;10.882;2022-12-07T12:33:25;4.40;99.90
32476;DHT22;18929;48.008;10.882;2022-12-07T12:36:23;4.50;99.90
32476;DHT22;18929;48.008;10.882;2022-12-07T12:38:52;4.70;99.90
32476;DHT22;18929;48.008;10.882;2022-12-07T12:41:57;4.60;99.90
32476;DHT22;18929;48.008;10.882;2022-12-07T12:47:51;4.60;99.90
32476;DHT22;18929;48.008;10.882;2022-12-07T12:50:23;4.70;99.90
32476;DHT22;18929;48.008;10.882;2022-12-07T12:53:20;5.00;99.90
32476;DHT22;18929;48.008;10.882;2022-12-07T12:56:18;4.80;99.90
32476;DHT22;18929;48.008;10.882;2022-12-07T12:58:49;4.70;99.90
32476;DHT22;18929;48.008;10.882;2022-12-07T13:01:42;4.50;99.90
32476;DHT22;18929;48.008;10.882;2022-12-07T13:04:38;4.80;99.90
32476;DHT22;18929;48.008;10.882;2022-12-07T13:07:13;4.80;99.90
32476;DHT22;18929;48.008;10.882;2022-12-07T13:10:00;4.70;99.90
32476;DHT22;18929;48.008;10.882;2022-12-07T13:12:28;4.70;99.90
32476;DHT22;18929;48.008;10.882;2022-12-07T13:14:57;4.90;99.90
32476;DHT22;18929;48.008;10.882;2022-12-07T13:17:54;4.90;99.90
32476;DHT22;18929;48.008;10.882;2022-12-07T13:20:44;4.70;99.90
32476;DHT22;18929;48.008;10.882;2022-12-07T13:23:13;4.80;99.90
32476;DHT22;18929;48.008;10.882;2022-12-07T13:25:54;4.50;99.90
32476;DHT22;18929;48.008;10.882;2022-12-07T13:28:22;4.40;99.90
32476;DHT22;18929;48.008;10.882;2022-12-07T13:33:50;4.80;99.90
32476;DHT22;18929;48.008;10.882;2022-12-07T13:36:21;4.80;99.90
32476;DHT22;18929;48.008;10.882;2022-12-07T13:38:52;5.10;99.90
32476;DHT22;18929;48.008;10.882;2022-12-07T13:41:21;5.10;99.90
32476;DHT22;18929;48.008;10.882;2022-12-07T13:43:51;5.20;99.90
32476;DHT22;18929;48.008;10.882;2022-12-07T13:46:24;4.90;99.90
32476;DHT22;18929;48.008;10.882;2022-12-07T13:48:52;4.80;99.90
32476;DHT22;18929;48.008;10.882;2022-12-07T13:51:23;4.70;99.90
32476;DHT22;18929;48.008;10.882;2022-12-07T13:53:53;4.30;99.90
32476;DHT22;18929;48.008;10.882;2022-12-07T13:56:22;4.40;99.90
32476;DHT22;18929;48.008;10.882;2022-12-07T13:58:53;4.60;99.90
32476;DHT22;18929;48.008;10.882;2022-12-07T14:01:20;4.90;99.90
32476;DHT22;18929;48.008;10.882;2022-12-07T14:03:47;5.00;99.90
32476;DHT22;18929;48.008;10.882;2022-12-07T14:06:24;5.20;99.90
32476;DHT22;18929;48.008;10.882;2022-12-07T14:09:09;5.10;99.90
32476;DHT22;18929;48.008;10.882;2022-12-07T14:11:37;5.20;99.90
32476;DHT22;18929;48.008;10.882;2022-12-07T14:14:05;5.20;99.90
32476;DHT22;18929;48.008;10.882;2022-12-07T14:16:34;5.00;99.90
32476;DHT22;18929;48.008;10.882;2022-12-07T14:19:04;4.90;99.90
32476;DHT22;18929;48.008;10.882;2022-12-07T14:21:33;4.80;99.90
32476;DHT22;18929;48.008;10.882;2022-12-07T14:24:11;5.20;99.90
32476;DHT22;18929;48.008;10.882;2022-12-07T14:26:40;5.30;99.90
32476;DHT22;18929;48.008;10.882;2022-12-07T14:29:27;5.50;99.90
32476;DHT22;18929;48.008;10.882;2022-12-07T14:31:57;5.30;99.90
32476;DHT22;18929;48.008;10.882;2022-12-07T14:34:24;5.00;99.90
32476;DHT22;18929;48.008;10.882;2022-12-07T14:36:51;5.00;99.90
32476;DHT22;18929;48.008;10.882;2022-12-07T14:39:20;5.10;99.90
32476;DHT22;18929;48.008;10.882;2022-12-07T14:41:47;5.30;99.90
32476;DHT22;18929;48.008;10.882;2022-12-07T14:44:18;4.90;99.90
32476;DHT22;18929;48.008;10.882;2022-12-07T14:46:45;5.00;99.90
32476;DHT22;18929;48.008;10.882;2022-12-07T14:49:12;5.30;99.90
32476;DHT22;18929;48.008;10.882;2022-12-07T14:51:40;5.30;99.90
32476;DHT22;18929;48.008;10.882;2022-12-07T14:54:13;5.40;99.90
32476;DHT22;18929;48.008;10.882;2022-12-07T14:56:42;5.30;99.90
32476;DHT22;18929;48.008;10.882;2022-12-07T14:59:10;5.30;99.90
32476;DHT22;18929;48.008;10.882;2022-12-07T15:01:37;5.30;99.90
32476;DHT22;18929;48.008;10.882;2022-12-07T15:04:04;5.40;99.90
32476;DHT22;18929;48.008;10.882;2022-12-07T15:06:32;5.50;99.90
32476;DHT22;18929;48.008;10.882;2022-12-07T15:08:59;5.60;99.90
32476;DHT22;18929;48.008;10.882;2022-12-07T15:11:26;5.50;99.90
32476;DHT22;18929;48.008;10.882;2022-12-07T15:13:54;5.60;99.90
32476;DHT22;18929;48.008;10.882;2022-12-07T15:16:40;5.70;99.90
32476;DHT22;18929;48.008;10.882;2022-12-07T15:19:16;5.70;99.90
32476;DHT22;18929;48.008;10.882;2022-12-07T15:21:43;5.40;99.90
32476;DHT22;18929;48.008;10.882;2022-12-07T15:24:11;5.50;99.90
32476;DHT22;18929;48.008;10.882;2022-12-07T15:26:39;5.40;99.90
32476;DHT22;18929;48.008;10.882;2022-12-07T15:29:09;5.10;99.90
32476;DHT22;18929;48.008;10.882;2022-12-07T15:31:37;5.20;99.90
32476;DHT22;18929;48.008;10.882;2022-12-07T15:34:04;5.00;99.90
32476;DHT22;18929;48.008;10.882;2022-12-07T15:36:32;5.00;99.90
32476;DHT22;18929;48.008;10.882;2022-12-07T15:39:00;5.00;99.90
32476;DHT22;18929;48.008;10.882;2022-12-07T15:41:27;5.10;99.90
32476;DHT22;18929;48.008;10.882;2022-12-07T15:43:54;5.30;99.90
32476;DHT22;18929;48.008;10.882;2022-12-07T15:46:41;5.50;99.90
32476;DHT22;18929;48.008;10.882;2022-12-07T15:49:11;5.40;99.90
32476;DHT22;18929;48.008;10.882;2022-12-07T15:51:39;5.30;99.90
32476;DHT22;18929;48.008;10.882;2022-12-07T15:54:07;5.50;99.90
32476;DHT22;18929;48.008;10.882;2022-12-07T15:56:34;5.40;99.90
32476;DHT22;18929;48.008;10.882;2022-12-07T15:59:01;5.60;99.90
32476;DHT22;18929;48.008;10.882;2022-12-07T16:01:28;5.50;99.90
32476;DHT22;18929;48.008;10.882;2022-12-07T16:03:57;5.50;99.90
32476;DHT22;18929;48.008;10.882;2022-12-07T16:06:24;5.00;99.90
32476;DHT22;18929;48.008;10.882;2022-12-07T16:08:52;5.30;99.90